Terminal Aerodrome Forecast
Issued by NWS

Home | Current Version | Previous Version | Graphics & Text | Print | Product List | Glossary On
Versions: 1 2 3 4 5 6 7 8 9 10 11 12 13 14
000
FTUS43 KMPX 300520
TAFAXN
TAF
KAXN 300520Z 3006/3106 28006KT P6SM BKN080
     FM301300 18004KT P6SM OVC060
     FM301900 23009KT P6SM BKN050
     FM302100 31012KT P6SM SCT050=

USA.gov is the U.S. government's official web portal to all federal, state and local government web resources and services.